Time;durP1;ratioP1;P1;durP2;ratioP2;P2;SDS_P1;SDS_P2;PMS_P1;PMS_P2;Temp;Humidity;BMP_temperature;BMP_pressure;BME280_temperature;BME280_humidity;BME280_pressure;Samples;Min_cycle;Max_cycle;Signal;HPM_P1;HPM_P2
2022/01/22 00:02:06;;;;;;;3.55;1.42;;;4.90;99.90;;;;;;5098747;28;20073;-67
2022/01/22 00:04:33;;;;;;;2.25;1.17;;;4.90;99.90;;;;;;5098384;28;20086;-67
2022/01/22 00:07:02;;;;;;;4.05;1.27;;;4.90;99.90;;;;;;5099036;28;20024;-67
2022/01/22 00:09:36;;;;;;;3.22;1.40;;;4.90;99.90;;;;;;5098261;28;20027;-67
2022/01/22 00:12:10;;;;;;;1.33;0.70;;;4.90;99.90;;;;;;5082095;28;20385;-67
2022/01/22 00:14:39;;;;;;;3.80;2.00;;;4.90;99.90;;;;;;5098233;28;20027;-67
2022/01/22 00:17:06;;;;;;;3.53;2.03;;;4.90;99.90;;;;;;5080631;28;20397;-67
2022/01/22 00:19:33;;;;;;;4.57;2.30;;;4.90;99.90;;;;;;5098750;28;20020;-67
2022/01/22 00:22:03;;;;;;;3.25;2.00;;;4.90;99.90;;;;;;5098334;28;20016;-67
2022/01/22 00:24:39;;;;;;;3.25;1.80;;;4.90;99.90;;;;;;5098462;28;20071;-67
2022/01/22 00:27:07;;;;;;;4.38;2.22;;;4.90;99.90;;;;;;5083330;28;20399;-67
2022/01/22 00:29:34;;;;;;;3.95;2.00;;;4.90;99.90;;;;;;5080928;28;20034;-67
2022/01/22 00:32:02;;;;;;;6.50;1.95;;;4.90;99.90;;;;;;5080948;28;20031;-67
2022/01/22 00:34:30;;;;;;;4.22;2.70;;;4.90;99.90;;;;;;5098777;28;20024;-67
2022/01/22 00:36:57;;;;;;;4.55;2.88;;;4.90;99.90;;;;;;5098919;28;20044;-67
2022/01/22 00:39:25;;;;;;;4.47;2.67;;;4.90;99.90;;;;;;5098616;28;20107;-67
2022/01/22 00:41:52;;;;;;;5.70;2.10;;;4.90;99.90;;;;;;5080703;28;20383;-67
2022/01/22 00:44:19;;;;;;;4.30;2.67;;;4.90;99.90;;;;;;5062966;28;20028;-67
2022/01/22 00:46:47;;;;;;;4.65;2.53;;;4.90;99.90;;;;;;5097572;28;20043;-67
2022/01/22 00:49:15;;;;;;;4.40;2.45;;;4.90;99.90;;;;;;5097519;28;20035;-67
2022/01/22 00:51:42;;;;;;;4.50;2.40;;;4.90;99.90;;;;;;5097596;28;20020;-67
2022/01/22 00:54:09;;;;;;;2.60;1.45;;;4.90;99.90;;;;;;5097817;28;20047;-67
2022/01/22 00:56:37;;;;;;;4.30;2.08;;;4.90;99.90;;;;;;5079544;28;20036;-67
2022/01/22 00:59:04;;;;;;;2.60;1.45;;;4.90;99.90;;;;;;5079159;28;20103;-67
2022/01/22 01:01:31;;;;;;;2.47;1.38;;;4.90;99.90;;;;;;5080415;28;20415;-66
2022/01/22 01:04:01;;;;;;;4.45;1.25;;;4.90;99.90;;;;;;5097385;28;20024;-67
2022/01/22 01:06:30;;;;;;;3.05;1.73;;;4.90;99.90;;;;;;5098667;28;20311;-67
2022/01/22 01:09:00;;;;;;;3.08;1.65;;;4.90;99.90;;;;;;5098427;28;20103;-67
2022/01/22 01:11:29;;;;;;;3.42;1.88;;;4.90;99.90;;;;;;5080565;28;20058;-67
2022/01/22 01:14:01;;;;;;;3.40;1.63;;;4.90;99.90;;;;;;5098089;28;20048;-67
2022/01/22 01:17:08;;;;;;;2.97;1.30;;;4.90;99.90;;;;;;5097935;28;20420;-67
2022/01/22 01:33:14;;;;;;;1.75;0.93;;;4.80;99.90;;;;;;5076955;28;20023;-67
2022/01/22 01:35:42;;;;;;;3.42;1.80;;;4.90;99.90;;;;;;5076642;28;20447;-67
2022/01/22 01:38:09;;;;;;;3.70;1.80;;;4.90;99.90;;;;;;5058778;28;20124;-67
2022/01/22 01:40:41;;;;;;;4.15;2.40;;;4.90;99.90;;;;;;5076587;28;20025;-67
2022/01/22 01:43:21;;;;;;;3.72;2.10;;;4.90;99.90;;;;;;5076234;28;20021;-67
2022/01/22 01:45:49;;;;;;;3.90;2.15;;;4.90;99.90;;;;;;5076262;28;20112;-67
2022/01/22 01:48:21;;;;;;;3.17;2.00;;;4.90;99.90;;;;;;5059524;28;20129;-67
2022/01/22 01:50:49;;;;;;;3.60;1.88;;;4.90;99.90;;;;;;5077330;28;20021;-67
2022/01/22 01:53:44;;;;;;;3.38;1.75;;;4.90;99.90;;;;;;5059545;28;20048;-67
2022/01/22 01:58:58;;;;;;;2.63;1.30;;;4.90;99.90;;;;;;5077399;28;20052;-67
2022/01/22 02:01:26;;;;;;;4.03;2.05;;;5.00;99.90;;;;;;5077496;28;20029;-67
2022/01/22 02:03:53;;;;;;;3.38;1.65;;;5.00;99.90;;;;;;5077763;28;20392;-67
2022/01/22 02:06:20;;;;;;;3.30;1.70;;;5.00;99.90;;;;;;5077741;28;20021;-67
2022/01/22 02:08:48;;;;;;;3.38;1.77;;;5.00;99.90;;;;;;5076129;28;20078;-67
2022/01/22 02:11:18;;;;;;;2.90;1.75;;;5.00;99.90;;;;;;5059031;28;20056;-67
2022/01/22 02:25:04;;;;;;;3.35;1.77;;;5.10;99.90;;;;;;5080375;28;19940;-67
2022/01/22 02:27:32;;;;;;;3.30;1.80;;;5.10;99.90;;;;;;5080278;28;20081;-67
2022/01/22 02:30:01;;;;;;;5.57;2.22;;;5.10;99.90;;;;;;5063070;28;20025;-66
2022/01/22 02:35:07;;;;;;;4.57;2.08;;;5.10;99.90;;;;;;5080868;28;20046;-67
2022/01/22 02:37:39;;;;;;;5.38;2.20;;;5.10;99.90;;;;;;5081249;28;20024;-67
2022/01/22 02:40:14;;;;;;;3.83;2.17;;;5.10;99.90;;;;;;5081263;28;20343;-67
2022/01/22 02:42:45;;;;;;;2.80;1.55;;;5.10;99.90;;;;;;5063796;28;20032;-67
2022/01/22 02:45:18;;;;;;;3.90;1.95;;;5.10;99.90;;;;;;5080518;28;20371;-67
2022/01/22 02:47:46;;;;;;;3.40;1.85;;;5.10;99.90;;;;;;5080372;28;20029;-67
2022/01/22 02:50:18;;;;;;;3.60;1.80;;;5.20;99.90;;;;;;5080269;28;20120;-67
2022/01/22 02:52:46;;;;;;;3.50;1.98;;;5.20;99.90;;;;;;5079489;28;20025;-67
2022/01/22 02:55:19;;;;;;;4.70;1.92;;;5.20;99.90;;;;;;5079669;28;20351;-67
2022/01/22 02:57:46;;;;;;;3.50;1.85;;;5.20;99.90;;;;;;5079404;28;20355;-67
2022/01/22 03:00:17;;;;;;;10.43;1.95;;;5.20;99.90;;;;;;5079979;28;20024;-66
2022/01/22 03:02:45;;;;;;;3.90;1.85;;;5.20;99.90;;;;;;5079514;28;20070;-67
2022/01/22 03:05:13;;;;;;;4.32;1.85;;;5.20;99.90;;;;;;5079619;28;20016;-67
2022/01/22 03:07:43;;;;;;;3.97;1.45;;;5.20;99.90;;;;;;5080090;28;20091;-67
2022/01/22 03:10:13;;;;;;;2.72;1.50;;;5.20;99.90;;;;;;5078932;28;20024;-66
2022/01/22 03:15:38;;;;;;;2.92;1.55;;;5.20;99.90;;;;;;5080123;28;20474;-67
2022/01/22 03:20:46;;;;;;;2.65;1.35;;;5.20;99.90;;;;;;5080206;28;20082;-67
2022/01/22 03:29:04;;;;;;;2.25;1.20;;;5.30;99.90;;;;;;5085298;28;20031;-67
2022/01/22 03:31:33;;;;;;;2.35;0.88;;;5.30;99.90;;;;;;5085777;28;20032;-66
2022/01/22 03:34:01;;;;;;;1.77;0.85;;;5.30;99.90;;;;;;5082316;28;20105;-67
2022/01/22 03:36:30;;;;;;;2.70;1.48;;;5.30;99.90;;;;;;5081125;28;20027;-67
2022/01/22 03:38:57;;;;;;;3.25;1.00;;;5.30;99.90;;;;;;5098884;28;20016;-67
2022/01/22 03:41:24;;;;;;;3.05;1.20;;;5.30;99.90;;;;;;5081827;28;20048;-67
2022/01/22 03:43:53;;;;;;;2.28;1.30;;;5.30;99.90;;;;;;5080894;28;20496;-67
2022/01/22 03:46:21;;;;;;;3.55;1.15;;;5.40;99.90;;;;;;5064461;28;20407;-67
2022/01/22 03:48:48;;;;;;;1.92;0.95;;;5.40;99.90;;;;;;5099386;28;20059;-67
2022/01/22 03:51:16;;;;;;;3.03;1.20;;;5.40;99.90;;;;;;5099419;28;20020;-67
2022/01/22 03:53:44;;;;;;;2.38;1.25;;;5.40;99.90;;;;;;5098680;28;20027;-67
2022/01/22 03:56:12;;;;;;;2.30;1.10;;;5.40;99.90;;;;;;5099319;28;20052;-67
2022/01/22 03:58:42;;;;;;;1.95;0.93;;;5.40;99.90;;;;;;5099499;28;20103;-67
2022/01/22 04:04:18;;;;;;;3.08;1.30;;;5.40;99.90;;;;;;5099853;28;20089;-67
2022/01/22 04:09:36;;;;;;;2.30;1.45;;;5.40;99.90;;;;;;5099580;28;20505;-67
2022/01/22 04:12:04;;;;;;;2.47;1.20;;;5.50;99.90;;;;;;5099355;28;20031;-67
2022/01/22 04:14:34;;;;;;;1.88;0.95;;;5.50;99.90;;;;;;5081304;28;20107;-67
2022/01/22 04:17:20;;;;;;;1.48;0.70;;;5.50;99.90;;;;;;5098714;28;20041;-67
2022/01/22 04:25:24;;;;;;;1.92;0.90;;;5.50;99.90;;;;;;5098138;28;20040;-67
2022/01/22 04:27:53;;;;;;;3.58;0.98;;;5.50;99.90;;;;;;5098347;28;20016;-67
2022/01/22 04:30:27;;;;;;;3.67;0.90;;;5.50;99.90;;;;;;5097916;28;20166;-67
2022/01/22 04:32:54;;;;;;;2.63;1.20;;;5.50;99.90;;;;;;5097885;28;20027;-67
2022/01/22 04:35:22;;;;;;;2.28;0.90;;;5.50;99.90;;;;;;5097428;28;20095;-67
2022/01/22 04:37:51;;;;;;;2.22;1.20;;;5.50;99.90;;;;;;5098312;28;20016;-67
2022/01/22 04:40:21;;;;;;;3.05;1.13;;;5.50;99.90;;;;;;5098660;28;20031;-67
2022/01/22 04:42:49;;;;;;;2.13;0.63;;;5.50;99.90;;;;;;5063979;28;20023;-67
2022/01/22 04:45:30;;;;;;;2.55;1.20;;;5.50;99.90;;;;;;5098649;28;20027;-67
2022/01/22 04:48:23;;;;;;;3.45;2.00;;;5.50;99.90;;;;;;5099141;28;20319;-67
2022/01/22 04:56:15;;;;;;;3.50;1.15;;;5.60;99.90;;;;;;5098779;28;20036;-67
2022/01/22 04:58:43;;;;;;;2.60;1.00;;;5.60;99.90;;;;;;5079580;28;20024;-67
2022/01/22 05:01:10;;;;;;;2.95;1.33;;;5.60;99.90;;;;;;5079930;28;20348;-67
2022/01/22 05:03:37;;;;;;;3.15;1.38;;;5.60;99.90;;;;;;5097223;28;20020;-67
2022/01/22 05:06:06;;;;;;;3.90;1.20;;;5.60;99.90;;;;;;5097349;28;20020;-67
2022/01/22 05:08:34;;;;;;;2.83;1.17;;;5.60;99.90;;;;;;5079449;28;20105;-67
2022/01/22 05:11:02;;;;;;;3.75;1.25;;;5.60;99.90;;;;;;5097463;28;20089;-67
2022/01/22 05:13:29;;;;;;;2.38;1.00;;;5.70;99.90;;;;;;5097126;28;20032;-67
2022/01/22 05:15:57;;;;;;;3.03;1.40;;;5.60;99.90;;;;;;5097751;28;20016;-67
2022/01/22 05:18:24;;;;;;;1.42;0.80;;;5.70;99.90;;;;;;5097088;28;20062;-67
2022/01/22 05:21:01;;;;;;;3.50;1.63;;;5.70;99.90;;;;;;5097850;28;20028;-67
2022/01/22 05:23:29;;;;;;;3.13;1.50;;;5.70;99.90;;;;;;5097446;28;20070;-67
2022/01/22 05:26:00;;;;;;;2.58;1.10;;;5.70;99.90;;;;;;5080044;28;20360;-67
2022/01/22 05:29:00;;;;;;;2.88;1.40;;;5.70;99.90;;;;;;5081026;28;20411;-67
2022/01/22 05:31:35;;;;;;;2.00;0.90;;;5.80;99.90;;;;;;5097573;28;20487;-67
2022/01/22 05:39:28;;;;;;;4.03;1.60;;;5.70;99.90;;;;;;5097331;28;20050;-67
2022/01/22 05:41:57;;;;;;;2.83;1.40;;;5.70;99.90;;;;;;5096731;28;20077;-67
2022/01/22 05:44:25;;;;;;;4.03;1.50;;;5.70;99.90;;;;;;5096616;28;20076;-67
2022/01/22 05:46:55;;;;;;;4.85;1.90;;;5.70;99.90;;;;;;5096677;28;20043;-67
2022/01/22 05:49:24;;;;;;;4.55;1.85;;;5.70;99.90;;;;;;5096554;28;20073;-67
2022/01/22 05:51:54;;;;;;;3.28;1.23;;;5.70;99.90;;;;;;5096822;28;20408;-67
2022/01/22 05:54:53;;;;;;;3.05;1.48;;;5.80;99.90;;;;;;5096376;28;20351;-67
2022/01/22 06:00:08;;;;;;;2.47;1.20;;;5.80;99.90;;;;;;5096919;28;20032;-67
2022/01/22 06:02:36;;;;;;;3.17;1.20;;;5.80;99.90;;;;;;5097151;28;20032;-67
2022/01/22 06:05:04;;;;;;;4.25;1.13;;;5.80;99.90;;;;;;5097684;28;20031;-67
2022/01/22 06:07:31;;;;;;;2.60;1.10;;;5.80;99.90;;;;;;5097522;28;20016;-67
2022/01/22 06:12:44;;;;;;;2.92;1.30;;;5.80;99.90;;;;;;5080310;28;20023;-67
2022/01/22 06:15:12;;;;;;;4.45;1.00;;;5.80;99.90;;;;;;5082139;28;20040;-67
2022/01/22 06:17:39;;;;;;;2.15;1.10;;;5.80;99.90;;;;;;5097919;28;20042;-67
2022/01/22 06:20:07;;;;;;;5.63;1.52;;;5.80;99.90;;;;;;5079784;28;20024;-67
2022/01/22 06:22:34;;;;;;;4.13;1.40;;;5.80;99.90;;;;;;5096907;28;20057;-67
2022/01/22 06:25:02;;;;;;;4.38;1.60;;;5.80;99.90;;;;;;5078297;28;20411;-67
2022/01/22 06:27:31;;;;;;;2.38;1.20;;;5.80;99.90;;;;;;5078498;28;20060;-67
2022/01/22 06:29:59;;;;;;;2.92;1.25;;;5.80;99.90;;;;;;5096245;28;20103;-67
2022/01/22 06:32:26;;;;;;;4.03;1.33;;;5.90;99.90;;;;;;5078570;28;20024;-67
2022/01/22 06:34:54;;;;;;;2.38;0.77;;;5.80;99.90;;;;;;5096193;28;20020;-67
2022/01/22 06:37:21;;;;;;;2.80;0.90;;;5.80;99.90;;;;;;5078272;28;20437;-67
2022/01/22 06:41:44;;;;;;;2.40;1.00;;;5.80;99.90;;;;;;5078229;28;20024;-67
2022/01/22 06:42:49;;;;;;;3.13;1.05;;;5.80;99.90;;;;;;5095787;28;20077;-67
2022/01/22 06:45:16;;;;;;;2.55;1.10;;;5.80;99.90;;;;;;5096528;28;20335;-67
2022/01/22 06:47:44;;;;;;;2.70;1.08;;;5.80;99.90;;;;;;5097121;28;20411;-67
2022/01/22 06:50:11;;;;;;;1.90;0.90;;;5.80;99.90;;;;;;5096989;28;20020;-67
2022/01/22 06:52:39;;;;;;;10.85;2.00;;;5.80;99.90;;;;;;5097416;28;20024;-67
2022/01/22 06:55:08;;;;;;;2.75;1.33;;;5.80;99.90;;;;;;5079282;28;20025;-67
2022/01/22 06:57:35;;;;;;;4.93;1.48;;;5.80;99.90;;;;;;5080304;28;20030;-67
2022/01/22 07:00:04;;;;;;;4.07;1.63;;;5.80;99.90;;;;;;5082665;28;20058;-67
2022/01/22 07:02:31;;;;;;;23.55;7.45;;;5.80;99.90;;;;;;5100900;28;20083;-67
2022/01/22 07:04:58;;;;;;;8.43;4.00;;;5.80;99.90;;;;;;5100105;28;20028;-67
2022/01/22 07:07:26;;;;;;;5.45;2.15;;;5.80;99.90;;;;;;5100201;28;20046;-67
2022/01/22 07:09:53;;;;;;;6.82;1.90;;;5.90;99.90;;;;;;5081956;28;20020;-67
2022/01/22 07:12:20;;;;;;;8.82;2.88;;;5.90;99.90;;;;;;5065096;28;20031;-66
2022/01/22 07:14:49;;;;;;;6.95;2.30;;;5.90;99.90;;;;;;5081531;28;20024;-66
2022/01/22 07:17:17;;;;;;;4.65;2.00;;;5.90;99.90;;;;;;5099443;28;20161;-66
2022/01/22 07:19:45;;;;;;;5.40;1.88;;;5.90;99.90;;;;;;5100012;28;20024;-70
2022/01/22 07:22:33;;;;;;;6.13;2.78;;;5.90;99.90;;;;;;5100063;28;20028;-69
2022/01/22 07:25:02;;;;;;;7.22;1.92;;;5.90;99.90;;;;;;5079351;28;20044;-70
2022/01/22 07:27:29;;;;;;;6.70;2.60;;;5.90;99.90;;;;;;5079120;28;20104;-70
2022/01/22 07:29:57;;;;;;;10.25;2.80;;;5.90;99.90;;;;;;5080267;28;20017;-70
2022/01/22 07:32:33;;;;;;;6.78;2.55;;;5.90;99.90;;;;;;5080107;28;20020;-71
2022/01/22 07:35:03;;;;;;;4.32;2.55;;;5.80;99.90;;;;;;5079824;28;20416;-70
2022/01/22 07:37:31;;;;;;;7.57;3.50;;;5.80;99.90;;;;;;5078930;28;20029;-71
2022/01/22 07:39:59;;;;;;;5.75;2.13;;;5.80;99.90;;;;;;5080245;28;20025;-71
2022/01/22 07:42:26;;;;;;;7.40;1.85;;;5.80;99.90;;;;;;5080176;28;20145;-71
2022/01/22 07:44:54;;;;;;;3.63;1.77;;;5.80;99.90;;;;;;5079655;28;20036;-71
2022/01/22 07:47:21;;;;;;;2.15;0.90;;;5.80;99.90;;;;;;5080067;28;20020;-72
2022/01/22 07:49:48;;;;;;;9.05;4.00;;;5.80;99.90;;;;;;5077648;28;20052;-72
2022/01/22 07:52:15;;;;;;;6.88;3.53;;;5.80;99.90;;;;;;5079390;28;20017;-72
2022/01/22 07:54:42;;;;;;;4.57;1.75;;;5.80;99.90;;;;;;5061181;28;20031;-71
2022/01/22 07:57:11;;;;;;;2.47;1.23;;;5.80;99.90;;;;;;5079210;28;20078;-71
2022/01/22 07:59:38;;;;;;;3.97;2.03;;;5.80;99.90;;;;;;5078460;28;20078;-72
2022/01/22 08:02:07;;;;;;;3.40;1.58;;;5.80;99.90;;;;;;5061446;28;20049;-72
2022/01/22 08:04:34;;;;;;;7.10;2.47;;;5.80;99.90;;;;;;5078398;28;20025;-71
2022/01/22 08:07:06;;;;;;;11.80;4.53;;;5.80;99.90;;;;;;5060633;28;20020;-70
2022/01/22 08:09:33;;;;;;;5.05;1.83;;;5.80;99.90;;;;;;5077210;28;20145;-70
2022/01/22 08:12:01;;;;;;;4.57;2.05;;;5.80;99.90;;;;;;5079205;28;20328;-70
2022/01/22 08:14:28;;;;;;;6.65;2.17;;;5.90;99.90;;;;;;5079327;28;20028;-67
2022/01/22 08:16:56;;;;;;;4.93;2.22;;;5.80;99.90;;;;;;5079620;28;20058;-67
2022/01/22 08:19:24;;;;;;;5.40;2.40;;;5.80;99.90;;;;;;5061989;28;20028;-68
2022/01/22 08:21:51;;;;;;;4.53;1.50;;;5.80;99.90;;;;;;5079140;28;20048;-67
2022/01/22 08:24:23;;;;;;;5.47;2.00;;;5.80;99.90;;;;;;5094316;28;20072;-68
2022/01/22 08:27:07;;;;;;;5.07;2.63;;;5.80;99.90;;;;;;5098927;28;20020;-68
2022/01/22 08:29:36;;;;;;;6.07;1.90;;;5.80;99.90;;;;;;5098830;28;20309;-67
2022/01/22 08:37:30;;;;;;;5.97;4.20;;;5.80;99.90;;;;;;5098263;28;20027;-67
2022/01/22 08:39:57;;;;;;;5.90;3.03;;;5.80;99.90;;;;;;5098006;28;20122;-67
2022/01/22 08:42:24;;;;;;;6.00;2.20;;;5.90;99.90;;;;;;5098668;28;20028;-66
2022/01/22 08:44:52;;;;;;;3.67;1.75;;;5.90;99.90;;;;;;5063087;28;20439;-75
2022/01/22 08:47:19;;;;;;;4.15;1.80;;;5.90;99.90;;;;;;5097983;28;20031;-67
2022/01/22 08:49:47;;;;;;;4.32;1.65;;;5.90;99.90;;;;;;5080064;28;20426;-72
2022/01/22 08:52:16;;;;;;;6.32;1.50;;;5.90;99.90;;;;;;5097839;28;20382;-66
2022/01/22 08:54:45;;;;;;;3.03;1.48;;;5.90;99.90;;;;;;5080500;28;20436;-67
2022/01/22 08:57:13;;;;;;;5.15;1.63;;;5.90;99.90;;;;;;5080553;28;20051;-66
2022/01/22 08:59:40;;;;;;;3.75;1.75;;;5.90;99.90;;;;;;5098588;28;20050;-67
2022/01/22 09:02:07;;;;;;;4.65;1.55;;;5.90;99.90;;;;;;5098311;28;20107;-74
2022/01/22 09:04:35;;;;;;;5.03;1.65;;;6.00;99.90;;;;;;5098318;28;20020;-67
2022/01/22 09:07:03;;;;;;;6.05;1.92;;;6.00;99.90;;;;;;5098186;28;20024;-66
2022/01/22 09:09:30;;;;;;;4.20;1.95;;;6.00;99.90;;;;;;5098122;28;20046;-67
2022/01/22 09:11:58;;;;;;;3.65;1.90;;;6.00;99.90;;;;;;5080478;28;20020;-69
2022/01/22 09:14:26;;;;;;;4.95;1.52;;;6.00;99.90;;;;;;5098022;28;20021;-66
2022/01/22 09:16:53;;;;;;;5.40;1.40;;;6.00;99.90;;;;;;5097579;28;20439;-68
2022/01/22 09:19:23;;;;;;;5.25;1.42;;;6.00;99.90;;;;;;5097057;28;20039;-66
2022/01/22 09:21:52;;;;;;;9.07;1.40;;;6.00;99.90;;;;;;5096701;28;20020;-66
2022/01/22 09:24:20;;;;;;;3.85;1.50;;;6.00;99.90;;;;;;5096649;28;20099;-66
2022/01/22 09:26:48;;;;;;;5.15;1.23;;;6.10;99.90;;;;;;5097236;28;20023;-66
2022/01/22 09:29:16;;;;;;;6.22;1.67;;;6.10;99.90;;;;;;5096891;28;20058;-66
2022/01/22 09:31:46;;;;;;;1.98;1.02;;;6.10;99.90;;;;;;5097025;28;20022;-66
2022/01/22 09:34:13;;;;;;;3.10;1.10;;;6.10;99.90;;;;;;5097042;28;20024;-66
2022/01/22 09:36:42;;;;;;;2.10;0.90;;;6.20;99.90;;;;;;5080286;28;20020;-66
2022/01/22 09:39:09;;;;;;;3.90;1.35;;;6.20;99.90;;;;;;5079750;28;20025;-66
2022/01/22 09:41:36;;;;;;;1.77;1.13;;;6.20;99.90;;;;;;5098377;28;20024;-66
2022/01/22 09:44:05;;;;;;;3.30;1.40;;;6.30;99.90;;;;;;5097631;28;20020;-66
2022/01/22 09:46:33;;;;;;;3.97;1.35;;;6.40;99.90;;;;;;5098107;28;20031;-66
2022/01/22 09:49:00;;;;;;;1.77;1.00;;;6.40;99.90;;;;;;5097966;28;20016;-66
2022/01/22 09:51:28;;;;;;;4.70;0.95;;;6.40;99.90;;;;;;5079720;28;20027;-66
2022/01/22 09:53:55;;;;;;;2.25;1.05;;;6.50;99.90;;;;;;5097609;28;20035;-66
2022/01/22 09:56:27;;;;;;;1.92;1.00;;;6.60;99.90;;;;;;5097411;28;20108;-66
2022/01/22 09:58:56;;;;;;;1.67;0.93;;;6.60;99.90;;;;;;5096506;28;20032;-66
2022/01/22 10:01:31;;;;;;;2.03;0.70;;;6.70;99.90;;;;;;5078728;28;20059;-66
2022/01/22 10:04:04;;;;;;;1.10;0.50;;;6.80;99.90;;;;;;5096439;28;20055;-66
2022/01/22 10:06:34;;;;;;;1.38;0.70;;;6.80;99.90;;;;;;5096695;28;20040;-66
2022/01/22 10:09:15;;;;;;;1.50;0.73;;;6.90;99.90;;;;;;5096926;28;20021;-66
2022/01/22 10:11:43;;;;;;;1.65;0.90;;;6.90;99.90;;;;;;5097144;28;20065;-66
2022/01/22 10:14:10;;;;;;;1.25;0.60;;;6.90;99.90;;;;;;5097080;28;20024;-68
2022/01/22 10:16:40;;;;;;;1.80;0.70;;;6.90;99.90;;;;;;5078986;28;20415;-67
2022/01/22 10:19:24;;;;;;;1.48;0.70;;;6.90;99.90;;;;;;5096761;28;20103;-67
2022/01/22 10:22:01;;;;;;;1.33;0.40;;;6.90;99.90;;;;;;5097705;28;20107;-66
2022/01/22 10:24:39;;;;;;;;;;;6.90;99.90;;;;;;5076391;28;20144;-68
2022/01/22 10:27:33;;;;;;;1.95;0.90;;;6.80;99.90;;;;;;5077746;28;20288;-67
2022/01/22 10:30:06;;;;;;;1.63;0.82;;;6.80;99.90;;;;;;5076959;28;20029;-66
2022/01/22 10:35:12;;;;;;;1.42;0.60;;;6.90;99.90;;;;;;5080898;28;20024;-66
2022/01/22 10:37:39;;;;;;;5.25;0.82;;;6.90;99.90;;;;;;5080966;28;20032;-66
2022/01/22 10:40:27;;;;;;;1.77;0.93;;;6.90;99.90;;;;;;5080290;28;20031;-69
2022/01/22 10:43:34;;;;;;;0.85;0.73;;;6.90;99.90;;;;;;5079734;28;20026;-70
2022/01/22 10:46:19;;;;;;;1.88;1.10;;;6.90;99.90;;;;;;5079909;28;20026;-68
2022/01/22 10:49:09;;;;;;;1.90;0.52;;;6.80;99.90;;;;;;5079576;28;20017;-68
2022/01/22 10:52:07;;;;;;;0.82;0.55;;;6.90;99.90;;;;;;5079649;28;20032;-68
2022/01/22 10:54:37;;;;;;;0.88;0.50;;;6.80;99.90;;;;;;5079861;28;20035;-68
2022/01/22 10:57:11;;;;;;;1.63;0.70;;;6.80;99.90;;;;;;5079696;28;20055;-68
2022/01/22 10:59:47;;;;;;;2.05;1.27;;;6.80;99.90;;;;;;5079470;28;20328;-67
2022/01/22 11:02:17;;;;;;;1.23;0.65;;;6.80;99.90;;;;;;5080274;28;20020;-68
2022/01/22 11:04:46;;;;;;;2.47;1.15;;;6.70;99.90;;;;;;5080291;28;20482;-67
2022/01/22 11:07:19;;;;;;;2.33;1.17;;;6.70;99.90;;;;;;5081059;28;20397;-67
2022/01/22 11:09:48;;;;;;;2.88;0.93;;;6.70;99.90;;;;;;5096030;28;20020;-67
2022/01/22 11:12:16;;;;;;;1.65;0.75;;;6.80;99.90;;;;;;5080174;28;20025;-66
2022/01/22 11:14:45;;;;;;;1.90;1.08;;;6.80;99.90;;;;;;5080149;28;20451;-67
2022/01/22 11:17:14;;;;;;;2.60;0.95;;;6.80;99.90;;;;;;5080473;28;20028;-70
2022/01/22 11:19:48;;;;;;;1.33;0.68;;;6.80;99.90;;;;;;5080089;28;20020;-68
2022/01/22 11:22:18;;;;;;;1.70;0.63;;;6.90;99.90;;;;;;5080251;28;20082;-68
2022/01/22 11:24:50;;;;;;;2.65;0.70;;;7.00;99.90;;;;;;5097669;28;20071;-67
2022/01/22 11:27:22;;;;;;;2.13;0.75;;;7.10;99.90;;;;;;5081301;28;20131;-67
2022/01/22 11:29:57;;;;;;;1.10;0.50;;;7.10;99.90;;;;;;5099258;28;20016;-67
2022/01/22 11:32:53;;;;;;;0.80;0.40;;;7.20;99.90;;;;;;5099337;28;20562;-69
2022/01/22 11:35:51;;;;;;;1.35;0.55;;;7.30;99.90;;;;;;5099736;28;20365;-69
2022/01/22 11:38:38;;;;;;;1.08;0.50;;;7.30;99.90;;;;;;5098916;28;20377;-68
2022/01/22 11:41:10;;;;;;;1.35;0.50;;;7.40;99.90;;;;;;5099100;28;20092;-67
2022/01/22 11:44:09;;;;;;;0.70;0.38;;;7.40;99.90;;;;;;5098728;28;20104;-67
2022/01/22 11:46:46;;;;;;;0.73;0.40;;;7.40;99.90;;;;;;5099697;28;20046;-68
2022/01/22 11:49:16;;;;;;;0.90;0.45;;;7.40;99.90;;;;;;5099583;28;20027;-67
2022/01/22 11:51:46;;;;;;;0.40;0.20;;;7.40;99.90;;;;;;5081969;28;20442;-67
2022/01/22 11:54:15;;;;;;;0.65;0.40;;;7.30;99.90;;;;;;5100141;28;20024;-67
2022/01/22 11:56:56;;;;;;;2.38;1.75;;;7.30;99.90;;;;;;5099704;28;20020;-67
2022/01/22 11:59:30;;;;;;;1.17;0.40;;;7.40;99.90;;;;;;5100148;28;20024;-69
2022/01/22 12:02:03;;;;;;;0.50;0.30;;;7.50;99.90;;;;;;5099609;28;20082;-74
2022/01/22 12:05:04;;;;;;;0.77;0.40;;;7.60;99.90;;;;;;5099092;28;20054;-67
2022/01/22 12:07:35;;;;;;;0.93;0.35;;;7.60;99.90;;;;;;5098575;28;20016;-67
2022/01/22 12:16:17;;;;;;;1.20;0.30;;;7.50;99.90;;;;;;5098478;28;20193;-67
2022/01/22 12:18:59;;;;;;;0.88;0.40;;;7.30;99.90;;;;;;5098428;28;20016;-67
2022/01/22 12:21:39;;;;;;;1.35;0.50;;;7.20;99.90;;;;;;5098155;28;20051;-71
2022/01/22 12:24:10;;;;;;;1.38;0.75;;;7.10;99.90;;;;;;5076470;28;20043;-66
2022/01/22 12:26:39;;;;;;;0.40;0.30;;;7.10;99.90;;;;;;5077857;28;20031;-67
2022/01/22 12:29:40;;;;;;;0.45;0.20;;;7.10;99.90;;;;;;5077640;28;20450;-67
2022/01/22 12:32:14;;;;;;;0.43;0.30;;;7.10;99.90;;;;;;5045545;28;20356;-68
2022/01/22 12:35:01;;;;;;;0.73;0.38;;;7.10;99.90;;;;;;5078612;28;20024;-66
2022/01/22 12:37:30;;;;;;;0.73;0.43;;;7.20;99.90;;;;;;5078517;28;20415;-67
2022/01/22 12:40:05;;;;;;;0.90;0.47;;;7.30;99.90;;;;;;5077431;28;20032;-67
2022/01/22 12:43:06;;;;;;;0.68;0.35;;;7.30;99.90;;;;;;5078568;28;20047;-67
2022/01/22 12:45:36;;;;;;;6.50;3.50;;;7.40;99.90;;;;;;5078346;28;20436;-67
2022/01/22 12:48:04;;;;;;;2.15;0.90;;;7.40;99.90;;;;;;5078268;28;20100;-66
2022/01/22 12:50:35;;;;;;;1.13;0.70;;;7.40;99.90;;;;;;5059984;28;20025;-67
2022/01/22 12:53:13;;;;;;;1.27;0.88;;;7.40;99.90;;;;;;5077763;28;20107;-67
2022/01/22 12:58:25;;;;;;;0.47;0.35;;;7.40;99.90;;;;;;5077297;28;20016;-67
2022/01/22 13:01:08;;;;;;;0.52;0.30;;;7.50;99.90;;;;;;5077211;28;20024;-67
2022/01/22 13:03:46;;;;;;;0.40;0.25;;;7.50;99.90;;;;;;5078049;28;20040;-67
2022/01/22 13:06:14;;;;;;;0.40;0.30;;;7.50;99.90;;;;;;5077590;28;20335;-67
2022/01/22 13:08:41;;;;;;;0.88;0.30;;;7.40;99.90;;;;;;5077262;28;20095;-67
2022/01/22 13:11:11;;;;;;;1.63;0.55;;;7.40;99.90;;;;;;5077936;28;20093;-67
2022/01/22 13:13:40;;;;;;;0.50;0.30;;;7.30;99.90;;;;;;5078026;28;20020;-67
2022/01/22 13:16:11;;;;;;;0.75;0.40;;;7.20;99.90;;;;;;5078614;28;20028;-67
2022/01/22 13:18:50;;;;;;;0.98;0.52;;;7.10;99.90;;;;;;5076783;28;20036;-67
2022/01/22 13:21:20;;;;;;;1.17;0.93;;;7.00;99.90;;;;;;5077909;28;20055;-67
2022/01/22 13:24:04;;;;;;;1.40;0.60;;;6.90;99.90;;;;;;5088125;28;20351;-67
2022/01/22 13:26:47;;;;;;;1.55;0.70;;;6.90;99.90;;;;;;5080200;28;20035;-67
2022/01/22 13:29:20;;;;;;;1.70;0.80;;;6.80;99.90;;;;;;5097695;28;20415;-67
2022/01/22 13:32:02;;;;;;;1.45;0.60;;;6.80;99.90;;;;;;5097033;28;20036;-67
2022/01/22 13:34:47;;;;;;;1.50;0.70;;;7.00;99.90;;;;;;5097232;28;20434;-67
2022/01/22 13:40:35;;;;;;;1.20;0.63;;;7.30;99.90;;;;;;5096990;28;20024;-67
2022/01/22 13:48:29;;;;;;;0.73;0.50;;;7.20;99.90;;;;;;5096787;28;20024;-67
2022/01/22 13:50:56;;;;;;;2.13;1.15;;;7.10;99.90;;;;;;5078879;28;20027;-67
2022/01/22 13:53:25;;;;;;;2.08;1.27;;;7.10;99.90;;;;;;5097401;28;20073;-67
2022/01/22 13:56:08;;;;;;;1.40;0.95;;;7.00;99.90;;;;;;5097826;28;20027;-67
2022/01/22 13:58:36;;;;;;;1.45;0.60;;;6.90;99.90;;;;;;5097627;28;20028;-67
2022/01/22 14:04:21;;;;;;;3.13;0.80;;;6.80;99.90;;;;;;5066553;28;20427;-67
2022/01/22 14:06:49;;;;;;;1.52;0.63;;;6.90;99.90;;;;;;5097857;28;20020;-67
2022/01/22 14:09:18;;;;;;;0.93;0.50;;;6.90;99.90;;;;;;5101235;28;20024;-67
2022/01/22 14:12:11;;;;;;;2.33;1.10;;;6.80;99.90;;;;;;5101611;28;20039;-67
2022/01/22 14:15:16;;;;;;;1.30;0.80;;;6.80;99.90;;;;;;5100471;28;20439;-67
2022/01/22 14:20:52;;;;;;;2.60;1.58;;;6.70;99.90;;;;;;5100828;28;20024;-67
2022/01/22 14:23:26;;;;;;;2.97;0.45;;;6.70;99.90;;;;;;5078919;28;20052;-67
2022/01/22 14:26:16;;;;;;;0.75;0.50;;;6.60;99.90;;;;;;5079205;28;20348;-67
2022/01/22 14:28:58;;;;;;;1.58;0.80;;;6.50;99.90;;;;;;5080738;28;20023;-67
2022/01/22 14:31:47;;;;;;;1.08;0.60;;;6.40;99.90;;;;;;5080321;28;20029;-67
2022/01/22 14:34:30;;;;;;;3.15;1.30;;;6.30;99.90;;;;;;5080380;28;20028;-67
2022/01/22 14:36:58;;;;;;;1.75;0.52;;;6.30;99.90;;;;;;5081448;28;20056;-67
2022/01/22 14:43:54;;;;;;;0.80;0.22;;;6.20;99.90;;;;;;5080716;28;20028;-67
2022/01/22 14:45:22;;;;;;;0.55;0.30;;;6.00;99.90;;;;;;5081235;28;20036;-67
2022/01/22 14:48:01;;;;;;;0.90;0.40;;;5.90;99.90;;;;;;5080767;28;20028;-67
2022/01/22 14:50:31;;;;;;;2.63;0.45;;;5.90;99.90;;;;;;5080830;28;20035;-67
2022/01/22 14:53:01;;;;;;;1.48;0.68;;;5.90;99.90;;;;;;5080415;28;20328;-67
2022/01/22 14:55:29;;;;;;;1.60;0.45;;;5.90;99.90;;;;;;5079930;28;20036;-67
2022/01/22 14:57:57;;;;;;;0.85;0.47;;;5.90;99.90;;;;;;5079540;28;20028;-67
2022/01/22 15:00:25;;;;;;;2.20;0.30;;;5.90;99.90;;;;;;5080240;28;20373;-67
2022/01/22 15:02:52;;;;;;;2.90;0.63;;;5.90;99.90;;;;;;5079461;28;20077;-67
2022/01/22 15:05:19;;;;;;;2.42;0.43;;;5.90;99.90;;;;;;5078350;28;20428;-67
2022/01/22 15:07:47;;;;;;;0.80;0.40;;;5.90;99.90;;;;;;5078393;28;20024;-67